createdAt,value
2019-02-19T00:00:51.639Z,100133.20
2019-02-19T00:02:23.445Z,100131.95
2019-02-19T00:03:54.754Z,100126.75
2019-02-19T00:05:26.250Z,100130.98
2019-02-19T00:06:58.158Z,100122.91
2019-02-19T00:08:30.046Z,100127.75
2019-02-19T00:10:01.933Z,100126.17
2019-02-19T00:11:34.128Z,100124.55
2019-02-19T00:13:06.064Z,100124.80
2019-02-19T00:14:37.960Z,100126.98
2019-02-19T00:16:09.847Z,100132.00
2019-02-19T00:17:42.254Z,100122.59
2019-02-19T00:19:14.175Z,100130.78
2019-02-19T00:20:46.065Z,100127.26
2019-02-19T00:22:17.341Z,100119.95
2019-02-19T00:23:49.607Z,100115.75
2019-02-19T00:25:20.979Z,100120.30
2019-02-19T00:26:52.295Z,100113.83
2019-02-19T00:28:23.578Z,100120.58
2019-02-19T00:29:55.759Z,100117.56
2019-02-19T00:31:27.065Z,100112.36
2019-02-19T00:32:58.384Z,100116.45
2019-02-19T00:34:29.695Z,100118.39
2019-02-19T00:36:01.347Z,100113.35
2019-02-19T00:37:32.653Z,100111.45
2019-02-19T00:39:03.965Z,100111.11
2019-02-19T00:40:35.300Z,100118.98
2019-02-19T00:42:07.064Z,100116.65
2019-02-19T00:43:38.389Z,100119.97
2019-02-19T00:45:16.444Z,100120.98
2019-02-19T00:46:43.226Z,100115.60
2019-02-19T00:48:14.828Z,100119.05
2019-02-19T00:49:46.158Z,100115.37
2019-02-19T00:51:18.029Z,100112.03
2019-02-19T00:52:49.335Z,100107.22
2019-02-19T00:54:20.635Z,100103.34
2019-02-19T00:55:51.981Z,100104.16
2019-02-19T00:57:23.479Z,100107.57
2019-02-19T00:58:54.764Z,100105.02
2019-02-19T01:00:26.071Z,100105.03
2019-02-19T01:01:57.445Z,100105.98
2019-02-19T01:03:29.158Z,100106.31
2019-02-19T01:05:00.497Z,100101.73
2019-02-19T01:06:32.153Z,100100.00
2019-02-19T01:08:03.466Z,100101.67
2019-02-19T01:09:34.770Z,100097.80
2019-02-19T01:11:06.118Z,100102.41
2019-02-19T01:12:37.823Z,100094.87
2019-02-19T01:14:09.123Z,100096.20
2019-02-19T01:15:40.425Z,100096.33
2019-02-19T01:17:11.749Z,100099.39
2019-02-19T01:18:43.473Z,100095.81
2019-02-19T01:20:14.806Z,100094.41
2019-02-19T01:21:46.475Z,100085.94
2019-02-19T01:23:18.394Z,100084.89
2019-02-19T01:24:49.714Z,100092.55
2019-02-19T01:26:21.030Z,100093.70
2019-02-19T01:27:53.499Z,100087.19
2019-02-19T01:29:24.851Z,100079.11
2019-02-19T01:30:56.149Z,100080.63
2019-02-19T01:32:27.443Z,100078.66
2019-02-19T01:33:59.270Z,100074.84
2019-02-19T01:35:30.589Z,100074.06
2019-02-19T01:37:02.458Z,100075.02
2019-02-19T01:38:34.393Z,100068.77
2019-02-19T01:40:05.697Z,100077.64
2019-02-19T01:41:37.593Z,100075.22
2019-02-19T01:43:09.265Z,100068.17
2019-02-19T01:44:40.618Z,100067.74
2019-02-19T01:46:12.533Z,100066.87
2019-02-19T01:47:43.816Z,100073.08
2019-02-19T01:49:15.431Z,100062.12
2019-02-19T01:50:46.726Z,100067.58
2019-02-19T01:52:18.068Z,100066.65
2019-02-19T01:53:49.450Z,100061.63
2019-02-19T01:55:21.119Z,100066.66
2019-02-19T01:56:52.417Z,100068.27
2019-02-19T01:58:24.300Z,100064.59
2019-02-19T01:59:56.200Z,100066.52
2019-02-19T02:01:28.588Z,100068.90
2019-02-19T02:02:59.889Z,100061.12
2019-02-19T02:04:31.192Z,100070.52
2019-02-19T02:06:03.083Z,100057.84
2019-02-19T02:07:35.206Z,100058.75
2019-02-19T02:09:06.506Z,100068.63
2019-02-19T02:10:38.409Z,100060.39
2019-02-19T02:12:09.721Z,100058.30
2019-02-19T02:13:41.191Z,100063.34
2019-02-19T02:15:12.517Z,100062.97
2019-02-19T02:16:43.846Z,100062.04
2019-02-19T02:18:15.167Z,100063.87
2019-02-19T02:19:46.994Z,100064.14
2019-02-19T02:21:18.325Z,100064.19
2019-02-19T02:22:49.971Z,100064.60
2019-02-19T02:24:21.265Z,100061.78
2019-02-19T02:25:52.560Z,100067.48
2019-02-19T02:27:23.891Z,100066.83
2019-02-19T02:28:55.567Z,100063.83
2019-02-19T02:30:26.890Z,100067.75
2019-02-19T02:31:58.171Z,100063.84
2019-02-19T02:33:29.548Z,100065.64
2019-02-19T02:35:01.106Z,100060.89
2019-02-19T02:36:32.405Z,100058.81
2019-02-19T02:38:04.211Z,100055.45
2019-02-19T02:39:35.558Z,100063.70
2019-02-19T02:41:06.923Z,100054.72
2019-02-19T02:42:38.240Z,100054.27
2019-02-19T02:44:10.063Z,100053.84
2019-02-19T02:45:41.370Z,100053.68
2019-02-19T02:47:12.699Z,100054.02
2019-02-19T02:48:43.999Z,100056.45
2019-02-19T02:50:15.853Z,100056.67
2019-02-19T02:51:47.136Z,100060.65
2019-02-19T02:53:18.754Z,100058.73
2019-02-19T02:54:50.034Z,100060.86
2019-02-19T02:56:21.318Z,100066.84
2019-02-19T02:57:52.677Z,100065.73
2019-02-19T02:59:24.614Z,100063.82
2019-02-19T03:00:55.936Z,100063.55
2019-02-19T03:02:27.252Z,100059.50
2019-02-19T03:03:58.577Z,100064.56
2019-02-19T03:05:30.377Z,100065.36
2019-02-19T03:07:01.686Z,100060.20
2019-02-19T03:08:33.277Z,100066.02
2019-02-19T03:10:04.568Z,100066.58
2019-02-19T03:11:35.874Z,100058.78
2019-02-19T03:13:07.196Z,100057.87
2019-02-19T03:14:38.830Z,100063.74
2019-02-19T03:16:10.127Z,100062.75
2019-02-19T03:17:41.432Z,100055.39
2019-02-19T03:19:12.753Z,100060.61
2019-02-19T03:20:44.303Z,100053.58
2019-02-19T03:22:15.650Z,100057.37
2019-02-19T03:23:47.201Z,100058.73
2019-02-19T03:25:18.505Z,100058.78
2019-02-19T03:26:49.863Z,100059.13
2019-02-19T03:28:21.174Z,100049.47
2019-02-19T03:29:53.190Z,100048.31
2019-02-19T03:31:24.510Z,100053.66
2019-02-19T03:32:55.771Z,99960.34
2019-02-19T03:34:27.055Z,100053.35
2019-02-19T03:35:58.739Z,100048.89
2019-02-19T03:37:30.068Z,100051.45
2019-02-19T03:39:01.844Z,100047.55
2019-02-19T03:40:33.198Z,100054.44
2019-02-19T03:42:04.509Z,100056.41
2019-02-19T03:43:35.800Z,100054.55
2019-02-19T03:45:07.419Z,100056.25
2019-02-19T03:46:38.738Z,100059.23
2019-02-19T03:48:10.070Z,100060.77
2019-02-19T03:49:41.339Z,100055.68
2019-02-19T03:51:12.880Z,100062.48
2019-02-19T03:52:44.226Z,100054.79
2019-02-19T03:54:15.651Z,100061.78
2019-02-19T03:55:46.977Z,100057.68
2019-02-19T03:57:18.250Z,100059.91
2019-02-19T03:58:49.601Z,100052.50
2019-02-19T04:00:21.440Z,100058.47
2019-02-19T04:01:52.760Z,100053.69
2019-02-19T04:03:24.085Z,100053.11
2019-02-19T04:04:55.421Z,100055.30
2019-02-19T04:06:27.020Z,100061.21
2019-02-19T04:07:58.308Z,100054.44
2019-02-19T04:09:29.706Z,100051.90
2019-02-19T04:11:01.039Z,100052.91
2019-02-19T04:12:32.345Z,100061.22
2019-02-19T04:14:03.657Z,100060.70
2019-02-19T04:15:35.477Z,100061.50
2019-02-19T04:17:06.859Z,100059.45
2019-02-19T04:18:38.135Z,100058.63
2019-02-19T04:20:09.457Z,100049.92
2019-02-19T04:21:41.349Z,100040.11
2019-02-19T04:23:12.698Z,100052.83
2019-02-19T04:24:44.043Z,100055.09
2019-02-19T04:26:15.369Z,100059.68
2019-02-19T04:27:46.934Z,100050.31
2019-02-19T04:29:18.276Z,100052.41
2019-02-19T04:30:50.158Z,100049.66
2019-02-19T04:32:22.071Z,100052.56
2019-02-19T04:33:53.915Z,100056.67
2019-02-19T04:35:25.202Z,100056.05
2019-02-19T04:36:56.530Z,100049.38
2019-02-19T04:38:27.875Z,100057.23
2019-02-19T04:39:59.449Z,100060.81
2019-02-19T04:41:30.720Z,100061.78
2019-02-19T04:43:02.035Z,100053.02
2019-02-19T04:44:33.396Z,100053.18
2019-02-19T04:46:04.943Z,100057.23
2019-02-19T04:47:36.253Z,100051.94
2019-02-19T04:49:07.550Z,100052.91
2019-02-19T04:50:38.906Z,100058.33
2019-02-19T04:52:10.334Z,100057.47
2019-02-19T04:53:41.679Z,100054.09
2019-02-19T04:55:12.994Z,100056.44
2019-02-19T04:56:44.305Z,100054.14
2019-02-19T04:58:15.902Z,100053.22
2019-02-19T04:59:47.246Z,100058.44
2019-02-19T05:01:18.575Z,100062.87
2019-02-19T05:02:51.552Z,100062.66
2019-02-19T05:04:23.304Z,100054.34
2019-02-19T05:05:54.644Z,100058.32
2019-02-19T05:07:25.997Z,100058.44
2019-02-19T05:08:57.329Z,100052.34
2019-02-19T05:10:29.090Z,100060.73
2019-02-19T05:12:00.401Z,100052.42
2019-02-19T05:13:31.740Z,100059.12
2019-02-19T05:15:03.069Z,100061.55
2019-02-19T05:16:40.733Z,100063.26
2019-02-19T05:18:07.723Z,100060.62
2019-02-19T05:19:39.093Z,100063.84
2019-02-19T05:21:10.399Z,100071.02
2019-02-19T05:22:42.064Z,100067.44
2019-02-19T05:24:13.350Z,100070.10
2019-02-19T05:25:44.670Z,100069.53
2019-02-19T05:27:15.980Z,100067.97
2019-02-19T05:28:47.720Z,100072.19
2019-02-19T05:30:19.006Z,100079.00
2019-02-19T05:31:50.353Z,100078.37
2019-02-19T05:33:21.680Z,100078.69
2019-02-19T05:34:53.221Z,100077.97
2019-02-19T05:36:24.536Z,100082.86
2019-02-19T05:37:55.883Z,100080.22
2019-02-19T05:39:27.191Z,100083.55
2019-02-19T05:40:58.621Z,100086.08
2019-02-19T05:42:29.922Z,100089.46
2019-02-19T05:44:01.244Z,100089.47
2019-02-19T05:45:32.537Z,100096.84
2019-02-19T05:47:04.008Z,100091.53
2019-02-19T05:48:35.355Z,100092.41
2019-02-19T05:50:06.732Z,100092.08
2019-02-19T05:51:38.082Z,100092.45
2019-02-19T05:53:09.494Z,100100.69
2019-02-19T05:54:40.848Z,100095.85
2019-02-19T05:56:12.375Z,100098.73
2019-02-19T05:57:43.687Z,100104.78
2019-02-19T05:59:15.002Z,100098.81
2019-02-19T06:00:46.337Z,100108.03
2019-02-19T06:02:17.949Z,100104.11
2019-02-19T06:03:49.309Z,100104.77
2019-02-19T06:05:20.627Z,100107.92
2019-02-19T06:06:51.937Z,100101.87
2019-02-19T06:08:23.650Z,100106.05
2019-02-19T06:09:54.986Z,100107.23
2019-02-19T06:11:26.702Z,100106.06
2019-02-19T06:12:58.026Z,100111.87
2019-02-19T06:14:29.327Z,100108.77
2019-02-19T06:16:00.674Z,100113.56
2019-02-19T06:17:33.304Z,100107.27
2019-02-19T06:19:04.653Z,100107.69
2019-02-19T06:20:35.940Z,100112.19
2019-02-19T06:22:07.304Z,100110.20
2019-02-19T06:23:39.362Z,100110.51
2019-02-19T06:25:11.318Z,100106.66
2019-02-19T06:26:42.859Z,100114.37
2019-02-19T06:28:14.152Z,100109.47
2019-02-19T06:29:46.078Z,100120.44
2019-02-19T06:31:18.001Z,100118.27
2019-02-19T06:32:49.695Z,100113.83
2019-02-19T06:34:20.983Z,100115.30
2019-02-19T06:35:52.275Z,100122.25
2019-02-19T06:37:23.627Z,100120.35
2019-02-19T06:38:55.086Z,100114.55
2019-02-19T06:40:26.404Z,100112.48
2019-02-19T06:41:57.958Z,100117.59
2019-02-19T06:43:29.325Z,100115.95
2019-02-19T06:45:00.675Z,100117.10
2019-02-19T06:46:31.987Z,100116.27
2019-02-19T06:48:03.621Z,100117.69
2019-02-19T06:49:34.921Z,100116.48
2019-02-19T06:51:06.255Z,100118.85
2019-02-19T06:52:38.141Z,100117.12
2019-02-19T06:54:09.797Z,100114.13
2019-02-19T06:55:41.092Z,100116.87
2019-02-19T06:57:12.904Z,100112.35
2019-02-19T06:58:44.205Z,100110.88
2019-02-19T07:00:15.517Z,100113.72
2019-02-19T07:01:46.852Z,100113.56
2019-02-19T07:03:18.470Z,100113.27
2019-02-19T07:04:49.774Z,100111.22
2019-02-19T07:06:21.659Z,100116.83
2019-02-19T07:07:52.971Z,100110.34
2019-02-19T07:09:24.661Z,100108.20
2019-02-19T07:10:55.964Z,100109.86
2019-02-19T07:12:27.418Z,100107.46
2019-02-19T07:13:58.716Z,100110.03
2019-02-19T07:15:30.067Z,100108.88
2019-02-19T07:17:01.370Z,100104.81
2019-02-19T07:18:32.936Z,100110.73
2019-02-19T07:20:04.236Z,100106.05
2019-02-19T07:21:36.176Z,100100.28
2019-02-19T07:23:08.068Z,100097.34
2019-02-19T07:24:40.208Z,100097.48
2019-02-19T07:26:12.098Z,100098.70
2019-02-19T07:27:44.434Z,100100.27
2019-02-19T07:29:16.314Z,100090.55
2019-02-19T07:30:47.611Z,100094.72
2019-02-19T07:32:18.941Z,100096.78
2019-02-19T07:33:51.232Z,100098.48
2019-02-19T07:35:23.102Z,100095.64
2019-02-19T07:36:55.026Z,100088.16
2019-02-19T07:38:26.321Z,100092.41
2019-02-19T07:39:57.930Z,100088.74
2019-02-19T07:41:29.834Z,100089.22
2019-02-19T07:43:01.887Z,100084.34
2019-02-19T07:44:33.801Z,100080.22
2019-02-19T07:46:05.776Z,100089.91
2019-02-19T07:47:37.641Z,100079.39
2019-02-19T07:49:09.777Z,100087.14
2019-02-19T07:50:41.688Z,100079.77
2019-02-19T07:52:13.573Z,100079.79
2019-02-19T07:53:45.446Z,100076.73
2019-02-19T07:55:17.706Z,100079.50
2019-02-19T07:56:49.650Z,100070.56
2019-02-19T07:58:21.826Z,100071.14
2019-02-19T07:59:53.727Z,100066.50
2019-02-19T08:01:25.619Z,100074.85
2019-02-19T08:02:57.533Z,100070.16
2019-02-19T08:04:29.858Z,100075.40
2019-02-19T08:06:01.722Z,100072.52
2019-02-19T08:07:33.629Z,100070.63
2019-02-19T08:09:05.533Z,100061.94
2019-02-19T08:10:37.773Z,100064.13
2019-02-19T08:12:09.676Z,100060.73
2019-02-19T08:13:50.844Z,100056.06
2019-02-19T08:15:22.782Z,100061.13
2019-02-19T08:16:54.729Z,100060.02
2019-02-19T08:18:26.687Z,100053.13
2019-02-19T08:19:58.938Z,100051.70
2019-02-19T08:21:30.842Z,100053.50
2019-02-19T08:23:02.783Z,100052.92
2019-02-19T08:24:34.691Z,100058.72
2019-02-19T08:26:07.085Z,100054.32
2019-02-19T08:27:38.951Z,100053.73
2019-02-19T08:29:13.680Z,100051.64
2019-02-19T08:30:44.695Z,100052.52
2019-02-19T08:32:16.590Z,100044.88
2019-02-19T08:33:48.512Z,100047.27
2019-02-19T08:35:20.815Z,100041.42
2019-02-19T08:36:52.705Z,100045.08
2019-02-19T08:38:24.570Z,100049.16
2019-02-19T08:39:56.456Z,100037.02
2019-02-19T08:41:28.754Z,100040.50
2019-02-19T08:43:00.637Z,100038.94
2019-02-19T08:44:32.879Z,100046.50
2019-02-19T08:46:04.780Z,100035.90
2019-02-19T08:47:42.728Z,100039.96
2019-02-19T08:49:10.199Z,100036.77
2019-02-19T08:50:42.434Z,100042.62
2019-02-19T08:52:14.393Z,100038.36
2019-02-19T08:53:46.268Z,100033.90
2019-02-19T08:55:18.150Z,100037.59
2019-02-19T08:56:50.347Z,100036.87
2019-02-19T08:58:22.285Z,100030.47
2019-02-19T08:59:54.484Z,100038.70
2019-02-19T09:01:26.364Z,100035.23
2019-02-19T09:02:58.272Z,100025.84
2019-02-19T09:04:30.200Z,100031.02
2019-02-19T09:06:02.504Z,100031.55
2019-02-19T09:07:34.393Z,100030.95
2019-02-19T09:09:06.316Z,100019.44
2019-02-19T09:10:38.218Z,100015.03
2019-02-19T09:12:11.562Z,100014.33
2019-02-19T09:13:43.514Z,100018.51
2019-02-19T09:15:15.773Z,100015.56
2019-02-19T09:16:47.682Z,100011.32
2019-02-19T09:18:19.618Z,100015.44
2019-02-19T09:19:51.538Z,100019.25
2019-02-19T09:21:24.001Z,100011.70
2019-02-19T09:22:55.900Z,100008.48
2019-02-19T09:24:27.824Z,100014.64
2019-02-19T09:25:59.733Z,100006.11
2019-02-19T09:27:32.033Z,100004.30
2019-02-19T09:29:03.898Z,100000.75
2019-02-19T09:30:36.055Z,100009.39
2019-02-19T09:32:07.958Z,100003.80
2019-02-19T09:33:39.911Z,99997.42
2019-02-19T09:35:11.843Z,99991.46
2019-02-19T09:36:44.079Z,99992.69
2019-02-19T09:38:15.956Z,99995.51
2019-02-19T09:39:47.860Z,99994.17
2019-02-19T09:41:19.800Z,99987.22
2019-02-19T09:42:51.982Z,99987.72
2019-02-19T09:44:23.890Z,99987.94
2019-02-19T09:45:56.210Z,99986.69
2019-02-19T09:47:28.068Z,99984.21
2019-02-19T09:48:59.989Z,99987.55
2019-02-19T09:50:35.257Z,99976.25
2019-02-19T09:52:07.532Z,99977.55
2019-02-19T09:53:39.419Z,99977.22
2019-02-19T09:55:11.327Z,99970.83
2019-02-19T09:56:43.282Z,99964.94
2019-02-19T09:58:15.452Z,99964.69
2019-02-19T09:59:47.351Z,99958.72
2019-02-19T10:01:22.271Z,99961.94
2019-02-19T10:02:54.200Z,99955.63
2019-02-19T10:04:26.069Z,99949.96
2019-02-19T10:05:57.953Z,99951.11
2019-02-19T10:07:30.169Z,99948.16
2019-02-19T10:09:02.080Z,99942.53
2019-02-19T10:10:33.973Z,99939.98
2019-02-19T10:12:05.862Z,99940.25
2019-02-19T10:13:38.071Z,99940.24
2019-02-19T10:15:09.993Z,99936.97
2019-02-19T10:16:42.291Z,99932.36
2019-02-19T10:18:14.175Z,99921.38
2019-02-19T10:19:46.046Z,99930.66
2019-02-19T10:21:17.973Z,99922.22
2019-02-19T10:22:50.118Z,99918.62
2019-02-19T10:24:22.017Z,99914.70
2019-02-19T10:25:53.964Z,99909.92
2019-02-19T10:27:25.857Z,99907.70
2019-02-19T10:28:58.042Z,99902.37
2019-02-19T10:30:29.904Z,99894.26
2019-02-19T10:32:02.183Z,99902.97
2019-02-19T10:33:34.084Z,99893.11
2019-02-19T10:35:05.986Z,99893.68
2019-02-19T10:36:38.633Z,99887.37
2019-02-19T10:38:11.101Z,99887.30
2019-02-19T10:39:43.344Z,99882.44
2019-02-19T10:41:15.216Z,99873.98
2019-02-19T10:42:47.088Z,99875.69
2019-02-19T10:44:19.241Z,99874.36
2019-02-19T10:45:51.117Z,99869.34
2019-02-19T10:47:23.366Z,99868.06
2019-02-19T10:48:55.264Z,99856.14
2019-02-19T10:50:27.240Z,99859.14
2019-02-19T10:51:59.117Z,99858.61
2019-02-19T10:53:31.487Z,99854.89
2019-02-19T10:55:03.365Z,99852.89
2019-02-19T10:56:35.342Z,99850.17
2019-02-19T10:58:07.246Z,99846.52
2019-02-19T10:59:39.397Z,99842.81
2019-02-19T11:01:11.298Z,99845.21
2019-02-19T11:02:43.820Z,99840.96
2019-02-19T11:04:15.765Z,99840.45
2019-02-19T11:05:47.629Z,99836.13
2019-02-19T11:07:19.513Z,99842.30
2019-02-19T11:08:51.758Z,99833.01
2019-02-19T11:10:23.642Z,99826.53
2019-02-19T11:11:55.557Z,99828.62
2019-02-19T11:13:27.478Z,99828.92
2019-02-19T11:14:59.695Z,99828.05
2019-02-19T11:16:31.583Z,99820.38
2019-02-19T11:18:03.841Z,99823.03
2019-02-19T11:19:35.938Z,99819.63
2019-02-19T11:21:07.879Z,99821.02
2019-02-19T11:22:39.764Z,99809.09
2019-02-19T11:24:12.126Z,99807.79
2019-02-19T11:25:44.045Z,99805.50
2019-02-19T11:27:16.732Z,99798.27
2019-02-19T11:28:48.894Z,99797.64
2019-02-19T11:30:21.283Z,99793.81
2019-02-19T11:31:53.182Z,99799.52
2019-02-19T11:33:25.409Z,99789.56
2019-02-19T11:34:57.336Z,99792.02
2019-02-19T11:36:29.243Z,99791.48
2019-02-19T11:38:01.735Z,99790.57
2019-02-19T11:39:34.042Z,99780.58
2019-02-19T11:41:05.921Z,99779.02
2019-02-19T11:42:37.847Z,99775.72
2019-02-19T11:44:09.741Z,99772.19
2019-02-19T11:45:41.982Z,99771.73
2019-02-19T11:47:13.858Z,99771.05
2019-02-19T11:48:46.089Z,99763.56
2019-02-19T11:50:18.002Z,99763.96
2019-02-19T11:51:49.897Z,99760.73
2019-02-19T11:53:22.335Z,99760.91
2019-02-19T11:54:54.731Z,99756.14
2019-02-19T11:56:26.640Z,99755.09
2019-02-19T11:57:58.534Z,99752.16
2019-02-19T11:59:30.430Z,99750.57
2019-02-19T12:01:02.953Z,99751.15
2019-02-19T12:02:34.819Z,99743.77
2019-02-19T12:04:06.980Z,99741.25
2019-02-19T12:05:38.874Z,99744.80
2019-02-19T12:07:10.783Z,99742.55
2019-02-19T12:08:42.724Z,99740.03
2019-02-19T12:10:15.003Z,99738.91
2019-02-19T12:11:46.906Z,99731.47
2019-02-19T12:13:18.857Z,99731.66
2019-02-19T12:14:50.743Z,99729.69
2019-02-19T12:16:24.951Z,99728.45
2019-02-19T12:17:56.823Z,99722.14
2019-02-19T12:19:28.802Z,99718.70
2019-02-19T12:21:00.692Z,99720.94
2019-02-19T12:22:32.634Z,99715.69
2019-02-19T12:24:04.506Z,99715.53
2019-02-19T12:25:36.614Z,99713.47
2019-02-19T12:27:09.017Z,99711.60
2019-02-19T12:28:40.957Z,99702.42
2019-02-19T12:30:12.831Z,99698.85
2019-02-19T12:31:45.183Z,99703.33
2019-02-19T12:33:17.101Z,99703.50
2019-02-19T12:34:49.273Z,99704.44
2019-02-19T12:36:21.149Z,99703.00
2019-02-19T12:37:53.033Z,99699.92
2019-02-19T12:39:24.933Z,99704.62
2019-02-19T12:40:57.190Z,99697.30
2019-02-19T12:42:29.104Z,99702.06
2019-02-19T12:44:01.010Z,99703.52
2019-02-19T12:45:32.898Z,99700.11
2019-02-19T12:47:05.103Z,99702.75
2019-02-19T12:48:37.020Z,99695.59
2019-02-19T12:50:08.912Z,99697.82
2019-02-19T12:51:40.804Z,99695.45
2019-02-19T12:53:13.035Z,99698.83
2019-02-19T12:54:44.921Z,99697.38
2019-02-19T12:56:16.842Z,99697.95
2019-02-19T12:57:48.731Z,99698.30
2019-02-19T12:59:20.947Z,99692.61
2019-02-19T13:00:52.855Z,99695.28
2019-02-19T13:02:24.736Z,99699.16
2019-02-19T13:03:56.625Z,99699.28
2019-02-19T13:05:28.814Z,99698.47
2019-02-19T13:07:00.700Z,99696.65
2019-02-19T13:08:32.634Z,99696.94
2019-02-19T13:10:04.515Z,99690.70
2019-02-19T13:11:36.709Z,99697.79
2019-02-19T13:13:08.582Z,99687.98
2019-02-19T13:14:40.504Z,99686.69
2019-02-19T13:16:12.411Z,99686.25
2019-02-19T13:17:44.636Z,99683.20
2019-02-19T13:19:16.547Z,99678.38
2019-02-19T13:20:48.949Z,99682.78
2019-02-19T13:22:20.850Z,99679.16
2019-02-19T13:23:52.778Z,99683.25
2019-02-19T13:25:24.664Z,99683.09
2019-02-19T13:26:56.821Z,99677.47
2019-02-19T13:28:28.680Z,99679.02
2019-02-19T13:30:00.614Z,99681.68
2019-02-19T13:31:32.506Z,99680.85
2019-02-19T13:33:04.612Z,99676.92
2019-02-19T13:34:36.500Z,99674.02
2019-02-19T13:36:08.609Z,99676.20
2019-02-19T13:37:40.493Z,99680.13
2019-02-19T13:39:12.443Z,99677.74
2019-02-19T13:40:44.316Z,99682.69
2019-02-19T13:42:16.550Z,99672.40
2019-02-19T13:43:48.422Z,99678.77
2019-02-19T13:45:20.323Z,99674.09
2019-02-19T13:46:52.277Z,99678.91
2019-02-19T13:48:24.465Z,99675.34
2019-02-19T13:49:56.342Z,99675.91
2019-02-19T13:51:28.478Z,99670.56
2019-02-19T13:53:00.437Z,99673.56
2019-02-19T13:54:32.318Z,99673.41
2019-02-19T13:56:04.202Z,99674.11
2019-02-19T13:57:36.388Z,99671.06
2019-02-19T13:59:08.267Z,99669.22
2019-02-19T14:00:40.135Z,99667.59
2019-02-19T14:02:12.037Z,99673.59
2019-02-19T14:03:44.227Z,99670.16
2019-02-19T14:05:16.112Z,99669.41
2019-02-19T14:06:48.239Z,99674.24
2019-02-19T14:08:20.156Z,99663.61
2019-02-19T14:09:52.091Z,99671.28
2019-02-19T14:11:23.999Z,99673.08
2019-02-19T14:12:56.159Z,99670.08
2019-02-19T14:14:28.040Z,99668.41
2019-02-19T14:15:59.989Z,99671.87
2019-02-19T14:17:31.868Z,99668.70
2019-02-19T14:19:04.193Z,99667.62
2019-02-19T14:20:36.100Z,99672.48
2019-02-19T14:22:08.509Z,99663.84
2019-02-19T14:23:40.401Z,99667.96
2019-02-19T14:25:12.354Z,99662.30
2019-02-19T14:26:44.252Z,99668.63
2019-02-19T14:28:16.419Z,99670.59
2019-02-19T14:29:48.308Z,99665.50
2019-02-19T14:31:20.217Z,99667.30
2019-02-19T14:32:52.146Z,99667.92
2019-02-19T14:34:24.370Z,99668.30
2019-02-19T14:35:56.258Z,99666.97
2019-02-19T14:37:28.475Z,99663.55
2019-02-19T14:39:00.400Z,99664.83
2019-02-19T14:40:32.255Z,99665.05
2019-02-19T14:42:04.169Z,99668.83
2019-02-19T14:43:36.307Z,99668.66
2019-02-19T14:45:08.235Z,99664.38
2019-02-19T14:46:40.113Z,99662.54
2019-02-19T14:48:12.003Z,99662.56
2019-02-19T14:49:47.294Z,99660.17
2019-02-19T14:51:17.790Z,99661.78
2019-02-19T14:52:49.893Z,99664.36
2019-02-19T14:54:21.771Z,99664.25
2019-02-19T14:55:53.696Z,99661.05
2019-02-19T14:57:25.601Z,99663.98
2019-02-19T14:58:57.893Z,99658.72
2019-02-19T15:00:29.804Z,99602.88
2019-02-19T15:02:01.712Z,99663.28
2019-02-19T15:03:33.579Z,99661.25
2019-02-19T15:05:05.824Z,99667.13
2019-02-19T15:06:37.747Z,99663.98
2019-02-19T15:08:09.619Z,99659.34
2019-02-19T15:09:41.483Z,99661.33
2019-02-19T15:11:13.521Z,99664.72
2019-02-19T15:12:45.439Z,99663.92
2019-02-19T15:14:17.314Z,99666.69
2019-02-19T15:15:49.214Z,99663.25
2019-02-19T15:17:21.455Z,99667.43
2019-02-19T15:18:53.391Z,99662.73
2019-02-19T15:20:25.298Z,99657.92
2019-02-19T15:21:57.185Z,99666.27
2019-02-19T15:23:29.163Z,99653.83
2019-02-19T15:25:01.114Z,99659.45
2019-02-19T15:26:33.041Z,99658.50
2019-02-19T15:28:04.947Z,99659.96
2019-02-19T15:29:36.971Z,99659.09
2019-02-19T15:31:08.922Z,99660.12
2019-02-19T15:32:40.811Z,99659.48
2019-02-19T15:34:12.708Z,99660.53
2019-02-19T15:35:44.834Z,99662.12
2019-02-19T15:37:17.299Z,99663.25
2019-02-19T15:38:49.192Z,99664.22
2019-02-19T15:40:21.079Z,99664.88
2019-02-19T15:41:53.233Z,99667.34
2019-02-19T15:43:25.140Z,99662.67
2019-02-19T15:44:57.073Z,99660.44
2019-02-19T15:46:28.997Z,99665.55
2019-02-19T15:48:01.086Z,99668.78
2019-02-19T15:49:33.054Z,99665.45
2019-02-19T15:51:04.938Z,99670.36
2019-02-19T15:52:36.820Z,99672.23
2019-02-19T15:54:08.909Z,99667.91
2019-02-19T15:55:40.827Z,99674.36
2019-02-19T15:57:12.698Z,99674.34
2019-02-19T15:58:44.621Z,99678.70
2019-02-19T16:00:16.772Z,99678.15
2019-02-19T16:01:48.678Z,99681.30
2019-02-19T16:03:20.583Z,99676.98
2019-02-19T16:04:52.483Z,99677.55
2019-02-19T16:06:24.682Z,99675.30
2019-02-19T16:07:56.593Z,99678.97
2019-02-19T16:09:28.517Z,99681.55
2019-02-19T16:11:00.384Z,99680.69
2019-02-19T16:12:32.460Z,99681.77
2019-02-19T16:14:04.418Z,99684.39
2019-02-19T16:15:36.293Z,99683.99
2019-02-19T16:17:08.179Z,99674.70
2019-02-19T16:18:40.220Z,99686.83
2019-02-19T16:20:12.134Z,99691.89
2019-02-19T16:21:44.011Z,99694.59
2019-02-19T16:23:15.929Z,99692.34
2019-02-19T16:24:47.909Z,99693.77
2019-02-19T16:26:19.882Z,99698.03
2019-02-19T16:27:51.788Z,99695.59
2019-02-19T16:29:23.695Z,99697.96
2019-02-19T16:30:55.735Z,99691.88
2019-02-19T16:32:27.645Z,99703.77
2019-02-19T16:33:59.554Z,99708.91
2019-02-19T16:35:31.423Z,99706.22
2019-02-19T16:37:03.450Z,99706.06
2019-02-19T16:38:35.381Z,99706.39
2019-02-19T16:40:07.815Z,99708.86
2019-02-19T16:41:39.722Z,99707.16
2019-02-19T16:43:11.608Z,99706.63
2019-02-19T16:44:43.581Z,99706.11
2019-02-19T16:46:15.743Z,99706.33
2019-02-19T16:47:47.624Z,99711.81
2019-02-19T16:49:19.533Z,99708.98
2019-02-19T16:50:51.486Z,99713.59
2019-02-19T16:52:23.592Z,99711.12
2019-02-19T16:53:55.526Z,99714.57
2019-02-19T16:55:27.500Z,99715.56
2019-02-19T16:56:59.332Z,99720.50
2019-02-19T16:58:31.415Z,99718.97
2019-02-19T17:00:03.334Z,99710.64
2019-02-19T17:01:35.200Z,99718.94
2019-02-19T17:03:07.112Z,99714.80
2019-02-19T17:04:39.249Z,99713.58
2019-02-19T17:06:11.137Z,99712.03
2019-02-19T17:07:43.049Z,99710.19
2019-02-19T17:09:14.965Z,99713.84
2019-02-19T17:10:47.698Z,99715.83
2019-02-19T17:12:19.580Z,99710.27
2019-02-19T17:13:58.084Z,99715.70
2019-02-19T17:15:25.011Z,99717.48
2019-02-19T17:16:57.196Z,99722.00
2019-02-19T17:18:29.133Z,99718.06
2019-02-19T17:20:01.014Z,99716.52
2019-02-19T17:21:32.911Z,99711.72
2019-02-19T17:23:04.957Z,99716.98
2019-02-19T17:24:36.857Z,99717.52
2019-02-19T17:26:08.738Z,99716.39
2019-02-19T17:27:40.662Z,99718.69
2019-02-19T17:29:12.709Z,99717.48
2019-02-19T17:30:44.629Z,99721.13
2019-02-19T17:32:16.543Z,99713.45
2019-02-19T17:33:48.424Z,99715.88
2019-02-19T17:35:20.536Z,99715.74
2019-02-19T17:36:52.415Z,99719.63
2019-02-19T17:38:24.341Z,99720.48
2019-02-19T17:39:56.222Z,99721.73
2019-02-19T17:41:28.705Z,99715.77